createdAt,value
2023-11-30T00:00:38.606Z,-3.10
2023-11-30T00:03:05.646Z,-3.00
2023-11-30T00:05:32.577Z,-3.00
2023-11-30T00:07:59.724Z,-2.90
2023-11-30T00:10:26.619Z,-3.00
2023-11-30T00:12:53.469Z,-2.30
2023-11-30T00:15:20.358Z,-2.90
2023-11-30T00:17:47.425Z,-3.20
2023-11-30T00:20:14.396Z,-3.10
2023-11-30T00:22:42.760Z,-2.90
2023-11-30T00:25:09.800Z,-3.10
2023-11-30T00:27:36.708Z,-3.00
2023-11-30T00:30:04.134Z,-3.00
2023-11-30T00:35:06.089Z,-2.90
2023-11-30T00:37:32.969Z,-2.80
2023-11-30T00:39:59.834Z,-3.10
2023-11-30T00:42:26.963Z,-3.00
2023-11-30T00:44:54.044Z,-3.00
2023-11-30T00:47:21.061Z,-3.10
2023-11-30T00:49:48.018Z,-3.10
2023-11-30T00:52:16.164Z,-3.00
2023-11-30T00:54:43.021Z,-2.80
2023-11-30T00:57:10.014Z,-3.00
2023-11-30T00:59:36.906Z,-3.10
2023-11-30T01:02:03.812Z,-3.10
2023-11-30T01:04:30.756Z,-2.90
2023-11-30T01:06:57.629Z,-1.40
2023-11-30T01:09:24.513Z,-2.80
2023-11-30T01:11:51.750Z,-3.00
2023-11-30T01:14:18.698Z,-2.90
2023-11-30T01:16:46.134Z,-3.00
2023-11-30T01:19:13.230Z,-3.00
2023-11-30T01:21:40.249Z,-2.80
2023-11-30T01:24:07.445Z,-3.00
2023-11-30T01:26:34.916Z,-2.80
2023-11-30T01:29:01.777Z,-3.00
2023-11-30T01:31:28.695Z,-2.90
2023-11-30T01:33:55.594Z,-2.90
2023-11-30T01:36:22.523Z,-2.70
2023-11-30T01:38:49.409Z,-2.90
2023-11-30T01:41:16.456Z,-2.90
2023-11-30T01:43:43.446Z,-2.80
2023-11-30T01:46:10.521Z,-2.70
2023-11-30T01:48:37.470Z,-2.90
2023-11-30T01:51:05.886Z,-2.80
2023-11-30T01:53:33.235Z,-2.60
2023-11-30T01:56:00.114Z,-2.90
2023-11-30T01:58:26.990Z,-2.70
2023-11-30T02:00:53.886Z,-2.80
2023-11-30T02:03:23.387Z,-2.90
2023-11-30T02:05:52.692Z,-2.80
2023-11-30T02:08:19.760Z,-2.90
2023-11-30T02:10:46.681Z,-2.80
2023-11-30T02:13:13.555Z,-1.20
2023-11-30T02:15:40.594Z,-3.00
2023-11-30T02:18:07.595Z,-3.00
2023-11-30T02:20:34.504Z,-3.00
2023-11-30T02:23:01.362Z,-3.00
2023-11-30T02:25:28.273Z,-2.80
2023-11-30T02:27:55.138Z,-1.40
2023-11-30T02:30:22.212Z,-3.00
2023-11-30T02:32:49.197Z,-2.80
2023-11-30T02:35:16.132Z,-2.80
2023-11-30T02:37:42.996Z,-3.00
2023-11-30T02:40:10.645Z,-2.90
2023-11-30T02:42:37.567Z,-2.70
2023-11-30T02:45:05.150Z,-2.90
2023-11-30T02:47:32.128Z,-2.70
2023-11-30T02:49:59.093Z,-2.90
2023-11-30T02:52:25.956Z,-0.90
2023-11-30T02:54:52.879Z,-2.90
2023-11-30T02:57:19.793Z,-2.70
2023-11-30T02:59:47.350Z,-2.80
2023-11-30T03:02:15.649Z,-2.70
2023-11-30T03:04:42.696Z,-2.80
2023-11-30T03:07:09.687Z,-2.70
2023-11-30T03:09:36.625Z,-2.70
2023-11-30T03:12:03.846Z,-2.70
2023-11-30T03:14:30.736Z,-2.60
2023-11-30T03:16:58.133Z,-2.70
2023-11-30T03:19:25.042Z,-2.70
2023-11-30T03:21:52.216Z,-2.60
2023-11-30T03:24:19.876Z,-2.40
2023-11-30T03:26:46.926Z,-2.60
2023-11-30T03:29:13.809Z,-2.60
2023-11-30T03:31:41.174Z,-2.70
2023-11-30T03:34:08.559Z,-2.70
2023-11-30T03:36:35.479Z,-2.80
2023-11-30T03:39:02.473Z,-2.80
2023-11-30T03:41:29.340Z,-2.70
2023-11-30T03:43:56.280Z,-2.60
2023-11-30T03:46:25.452Z,-2.70
2023-11-30T03:48:53.722Z,-2.70
2023-11-30T03:51:20.659Z,-2.60
2023-11-30T03:53:47.797Z,-2.50
2023-11-30T03:56:14.757Z,-2.50
2023-11-30T03:58:41.642Z,-2.60
2023-11-30T04:01:08.793Z,-0.70
2023-11-30T04:03:35.684Z,-2.40
2023-11-30T04:06:02.594Z,-2.50
2023-11-30T04:08:29.523Z,-2.60
2023-11-30T04:10:56.452Z,-2.60
2023-11-30T04:13:23.317Z,-2.30
2023-11-30T04:15:50.258Z,-1.50
2023-11-30T04:18:17.217Z,-0.70
2023-11-30T04:20:44.154Z,-2.40
2023-11-30T04:23:11.134Z,-0.90
2023-11-30T04:25:38.465Z,-2.40
2023-11-30T04:28:05.360Z,-2.50
2023-11-30T04:30:32.727Z,-2.40
2023-11-30T04:32:59.725Z,-1.60
2023-11-30T04:35:26.683Z,-1.00
2023-11-30T04:37:53.878Z,-2.40
2023-11-30T04:40:20.809Z,-2.50
2023-11-30T04:42:47.715Z,-2.50
2023-11-30T04:45:14.659Z,-2.30
2023-11-30T04:47:41.735Z,-2.40
2023-11-30T04:50:09.027Z,-2.40
2023-11-30T04:52:35.953Z,-2.40
2023-11-30T04:55:02.905Z,-2.50
2023-11-30T04:57:29.810Z,-2.40
2023-11-30T04:59:56.927Z,-2.40
2023-11-30T05:02:24.207Z,-2.50
2023-11-30T05:04:51.316Z,-2.40
2023-11-30T05:07:18.345Z,-2.40
2023-11-30T05:09:45.272Z,-2.30
2023-11-30T05:12:12.656Z,-2.40
2023-11-30T05:14:39.635Z,-2.30
2023-11-30T05:17:06.558Z,-0.60
2023-11-30T05:19:33.484Z,-2.10
2023-11-30T05:22:00.330Z,-2.30
2023-11-30T05:24:27.292Z,-2.20
2023-11-30T05:26:54.156Z,-1.40
2023-11-30T05:29:21.043Z,-2.30
2023-11-30T05:31:48.022Z,-2.10
2023-11-30T05:34:15.330Z,-2.20
2023-11-30T05:36:42.640Z,-2.20
2023-11-30T05:39:10.054Z,-2.20
2023-11-30T05:41:37.048Z,-2.20
2023-11-30T05:44:04.945Z,-2.10
2023-11-30T05:46:31.979Z,-2.10
2023-11-30T05:48:58.995Z,-2.30
2023-11-30T05:51:27.857Z,-1.50
2023-11-30T05:53:54.860Z,-0.60
2023-11-30T05:56:22.101Z,-0.50
2023-11-30T05:58:49.048Z,-2.30
2023-11-30T06:01:18.116Z,-2.10
2023-11-30T06:03:45.247Z,-2.10
2023-11-30T06:06:12.289Z,-1.90
2023-11-30T06:11:32.514Z,-0.20
2023-11-30T06:14:01.721Z,0.10
2023-11-30T06:16:30.701Z,-1.70
2023-11-30T06:18:57.627Z,-0.30
2023-11-30T06:21:24.514Z,-2.10
2023-11-30T06:23:51.404Z,-0.40
2023-11-30T06:26:18.856Z,-2.00
2023-11-30T06:28:45.823Z,-0.30
2023-11-30T06:31:15.803Z,-2.00
2023-11-30T06:33:43.298Z,-1.10
2023-11-30T06:36:10.481Z,-0.40
2023-11-30T06:38:37.349Z,-1.90
2023-11-30T06:41:14.022Z,0.00
2023-11-30T06:43:41.887Z,-1.80
2023-11-30T06:46:08.898Z,-1.10
2023-11-30T06:48:36.070Z,-1.60
2023-11-30T06:51:03.137Z,-1.40
2023-11-30T06:56:07.293Z,-1.70
2023-11-30T06:58:34.673Z,-1.70
2023-11-30T07:01:01.579Z,0.10
2023-11-30T07:03:30.254Z,0.20
2023-11-30T07:05:57.478Z,-1.60
2023-11-30T07:08:24.374Z,-1.60
2023-11-30T07:10:51.279Z,-0.30
2023-11-30T07:13:18.732Z,-1.10
2023-11-30T07:15:45.661Z,0.10
2023-11-30T07:18:15.018Z,0.10
2023-11-30T07:20:42.117Z,0.20
2023-11-30T07:23:09.205Z,-1.70
2023-11-30T07:25:36.059Z,0.10
2023-11-30T07:28:03.079Z,-0.10
2023-11-30T07:30:30.545Z,0.10
2023-11-30T07:32:57.621Z,-1.60
2023-11-30T07:35:24.739Z,-1.50
2023-11-30T07:37:51.627Z,-0.50
2023-11-30T07:40:19.364Z,-1.50
2023-11-30T07:42:46.397Z,-1.30
2023-11-30T07:45:13.350Z,-0.60
2023-11-30T07:47:40.317Z,-0.60
2023-11-30T07:50:07.713Z,0.10
2023-11-30T07:52:38.442Z,-1.10
2023-11-30T07:55:08.479Z,0.70
2023-11-30T07:57:38.958Z,-1.10
2023-11-30T08:00:17.839Z,-0.50
2023-11-30T08:02:47.467Z,-1.00
2023-11-30T08:05:14.401Z,-0.80
2023-11-30T08:07:41.681Z,-0.80
2023-11-30T08:10:09.076Z,-0.10
2023-11-30T08:12:36.474Z,-0.70
2023-11-30T08:15:05.401Z,-0.10
2023-11-30T08:17:32.293Z,-0.80
2023-11-30T08:19:59.321Z,-0.60
2023-11-30T08:22:26.170Z,-0.10
2023-11-30T08:24:53.125Z,0.00
2023-11-30T08:27:21.507Z,-0.60
2023-11-30T08:29:48.393Z,-0.50
2023-11-30T08:32:15.353Z,0.00
2023-11-30T08:34:42.296Z,0.50
2023-11-30T08:37:09.167Z,-0.50
2023-11-30T08:39:36.129Z,0.50
2023-11-30T08:42:03.337Z,0.60
2023-11-30T08:44:30.430Z,-0.70
2023-11-30T08:46:57.790Z,0.20
2023-11-30T08:49:24.751Z,-0.60
2023-11-30T08:51:53.267Z,0.10
2023-11-30T08:54:22.485Z,1.20
2023-11-30T08:56:49.543Z,0.40
2023-11-30T08:59:18.120Z,1.10
2023-11-30T09:01:45.706Z,-0.40
2023-11-30T09:04:12.980Z,1.00
2023-11-30T09:06:39.889Z,0.10
2023-11-30T09:09:06.812Z,1.00
2023-11-30T09:11:35.379Z,0.20
2023-11-30T09:14:02.603Z,1.10
2023-11-30T09:16:29.539Z,0.90
2023-11-30T09:18:56.750Z,0.90
2023-11-30T09:21:26.942Z,0.90
2023-11-30T09:23:54.315Z,1.20
2023-11-30T09:26:23.140Z,-0.30
2023-11-30T09:28:50.399Z,-0.10
2023-11-30T09:31:17.375Z,0.30
2023-11-30T09:33:45.714Z,0.40
2023-11-30T09:36:14.202Z,1.40
2023-11-30T09:38:41.773Z,-0.30
2023-11-30T09:41:08.712Z,-0.20
2023-11-30T09:43:36.372Z,0.40
2023-11-30T09:46:03.556Z,-0.20
2023-11-30T09:48:30.512Z,0.10
2023-11-30T09:50:57.501Z,1.70
2023-11-30T09:53:25.070Z,0.90
2023-11-30T09:55:52.023Z,0.30
2023-11-30T09:58:18.950Z,1.10
2023-11-30T10:00:46.174Z,0.00
2023-11-30T10:03:14.021Z,0.20
2023-11-30T10:05:43.036Z,-0.10
2023-11-30T10:08:09.876Z,0.00
2023-11-30T10:13:11.839Z,-0.20
2023-11-30T10:15:38.880Z,0.00
2023-11-30T10:18:06.399Z,0.00
2023-11-30T10:20:36.331Z,-0.10
2023-11-30T10:23:13.597Z,0.10
2023-11-30T10:25:42.039Z,-0.20
2023-11-30T10:28:13.962Z,0.20
2023-11-30T10:30:41.690Z,0.00
2023-11-30T10:33:25.078Z,0.50
2023-11-30T10:35:53.433Z,-0.20
2023-11-30T10:38:25.552Z,2.00
2023-11-30T10:40:56.909Z,0.00
2023-11-30T10:43:27.808Z,1.10
2023-11-30T10:45:58.901Z,0.60
2023-11-30T10:48:26.003Z,-0.10
2023-11-30T10:50:53.433Z,0.40
2023-11-30T10:53:44.094Z,0.60
2023-11-30T10:56:12.276Z,-0.30
2023-11-30T10:58:39.155Z,0.50
2023-11-30T11:01:06.462Z,0.10
2023-11-30T11:03:33.946Z,-0.20
2023-11-30T11:06:03.953Z,0.10
2023-11-30T11:08:32.399Z,0.30
2023-11-30T11:11:08.125Z,1.00
2023-11-30T11:13:44.532Z,0.00
2023-11-30T11:16:11.699Z,-0.10
2023-11-30T11:18:41.855Z,0.80
2023-11-30T11:21:26.939Z,0.30
2023-11-30T11:23:53.906Z,0.10
2023-11-30T11:26:24.101Z,0.00
2023-11-30T11:28:51.732Z,0.80
2023-11-30T11:31:18.705Z,-0.10
2023-11-30T11:33:45.749Z,-0.10
2023-11-30T11:36:14.724Z,0.50
2023-11-30T11:38:41.535Z,0.80
2023-11-30T11:41:09.369Z,-0.10
2023-11-30T11:43:36.380Z,-0.20
2023-11-30T11:46:03.444Z,0.00
2023-11-30T11:48:30.485Z,0.70
2023-11-30T11:51:01.308Z,0.60
2023-11-30T11:53:28.250Z,0.60
2023-11-30T11:56:04.322Z,0.70
2023-11-30T11:58:31.430Z,-0.10
2023-11-30T12:00:58.407Z,0.30
2023-11-30T12:03:26.819Z,0.80
2023-11-30T12:05:55.305Z,-0.20
2023-11-30T12:08:30.452Z,0.60
2023-11-30T12:10:57.455Z,0.50
2023-11-30T12:13:27.969Z,-0.30
2023-11-30T12:15:55.615Z,0.50
2023-11-30T12:18:22.890Z,0.40
2023-11-30T12:20:50.305Z,1.10
2023-11-30T12:23:17.488Z,0.60
2023-11-30T12:25:44.594Z,0.90
2023-11-30T12:28:12.850Z,1.20
2023-11-30T12:30:39.833Z,0.40
2023-11-30T12:33:06.878Z,0.00
2023-11-30T12:35:35.587Z,0.40
2023-11-30T12:38:03.232Z,0.30
2023-11-30T12:40:30.083Z,0.00
2023-11-30T12:42:58.032Z,-0.30
2023-11-30T12:45:25.078Z,0.60
2023-11-30T12:47:52.297Z,0.60
2023-11-30T12:50:21.479Z,0.30
2023-11-30T12:52:56.641Z,-0.10
2023-11-30T12:55:24.297Z,0.00
2023-11-30T12:57:53.722Z,1.00
2023-11-30T13:00:21.980Z,0.40
2023-11-30T13:07:03.795Z,-0.10
2023-11-30T13:09:52.033Z,0.20
2023-11-30T13:12:32.447Z,1.20
2023-11-30T13:15:25.290Z,1.00
2023-11-30T13:18:12.909Z,0.50
2023-11-30T13:20:42.430Z,0.40
2023-11-30T13:23:09.443Z,0.80
2023-11-30T13:25:36.392Z,0.20
2023-11-30T13:28:03.778Z,1.00
2023-11-30T13:30:34.484Z,0.00
2023-11-30T13:33:14.847Z,1.60
2023-11-30T13:35:45.654Z,-0.10
2023-11-30T13:59:44.651Z,0.20
2023-11-30T14:02:11.858Z,0.30
2023-11-30T14:04:41.586Z,0.70
2023-11-30T14:07:55.569Z,0.10
2023-11-30T14:24:18.614Z,0.10
2023-11-30T14:26:48.581Z,0.00
2023-11-30T14:29:26.019Z,0.80
2023-11-30T14:37:35.284Z,-0.60
2023-11-30T14:40:04.840Z,0.20
2023-11-30T14:42:34.401Z,0.30
2023-11-30T14:45:01.294Z,0.70
2023-11-30T14:47:38.901Z,0.60
2023-11-30T14:50:11.446Z,0.90
2023-11-30T14:52:39.194Z,-0.60
2023-11-30T14:55:07.463Z,-0.20
2023-11-30T14:57:34.329Z,-0.70
2023-11-30T15:00:05.168Z,0.10
2023-11-30T15:02:32.123Z,1.00
2023-11-30T15:04:59.081Z,0.10
2023-11-30T15:07:26.715Z,1.00
2023-11-30T15:09:54.103Z,-0.70
2023-11-30T15:12:21.049Z,0.10
2023-11-30T15:14:48.575Z,-0.90
2023-11-30T15:17:15.539Z,-0.20
2023-11-30T15:19:42.480Z,-0.20
2023-11-30T15:22:10.182Z,1.00
2023-11-30T15:24:37.106Z,1.30
2023-11-30T15:27:04.861Z,0.50
2023-11-30T15:29:32.262Z,-0.60
2023-11-30T15:31:59.261Z,0.10
2023-11-30T15:34:29.572Z,1.80
2023-11-30T15:36:56.529Z,0.30
2023-11-30T15:39:25.294Z,0.70
2023-11-30T15:41:59.699Z,1.10
2023-11-30T15:44:26.729Z,1.40
2023-11-30T15:46:53.992Z,1.00
2023-11-30T15:49:20.964Z,0.60
2023-11-30T15:51:49.842Z,0.30
2023-11-30T15:54:16.798Z,0.10
2023-11-30T15:56:45.173Z,0.10
2023-11-30T15:59:12.115Z,1.30
2023-11-30T16:01:39.087Z,-0.80
2023-11-30T16:04:07.356Z,-0.20
2023-11-30T16:06:34.892Z,1.10
2023-11-30T16:09:03.264Z,0.70
2023-11-30T16:11:30.144Z,0.90
2023-11-30T16:13:57.250Z,0.20
2023-11-30T16:16:24.269Z,0.10
2023-11-30T16:18:51.213Z,0.70
2023-11-30T16:21:20.348Z,-0.10
2023-11-30T16:23:48.378Z,0.90
2023-11-30T16:26:19.135Z,-1.10
2023-11-30T16:28:46.609Z,-0.30
2023-11-30T16:31:13.886Z,0.30
2023-11-30T16:33:42.184Z,0.40
2023-11-30T16:36:12.956Z,0.80
2023-11-30T16:38:40.028Z,-1.00
2023-11-30T16:41:07.744Z,0.70
2023-11-30T16:43:37.073Z,-1.10
2023-11-30T16:46:04.893Z,1.00
2023-11-30T16:48:32.075Z,-0.80
2023-11-30T16:50:59.683Z,1.40
2023-11-30T16:53:28.945Z,1.00
2023-11-30T16:55:56.564Z,0.50
2023-11-30T16:58:23.452Z,0.60
2023-11-30T17:00:50.585Z,0.50
2023-11-30T17:03:17.600Z,0.40
2023-11-30T17:05:44.522Z,1.00
2023-11-30T17:08:11.360Z,0.90
2023-11-30T17:10:38.182Z,-0.60
2023-11-30T17:13:05.737Z,-0.40
2023-11-30T17:15:33.232Z,0.20
2023-11-30T17:18:00.259Z,-1.10
2023-11-30T17:20:27.157Z,-0.60
2023-11-30T17:22:54.104Z,0.40
2023-11-30T17:25:21.276Z,0.70
2023-11-30T17:27:55.835Z,0.70
2023-11-30T17:30:23.052Z,0.50
2023-11-30T17:35:39.962Z,0.40
2023-11-30T17:38:12.805Z,0.40
2023-11-30T17:40:39.687Z,0.70
2023-11-30T17:43:06.778Z,-1.20
2023-11-30T17:45:33.788Z,0.00
2023-11-30T17:48:00.810Z,0.40
2023-11-30T17:53:24.480Z,-1.20
2023-11-30T17:55:51.503Z,-0.90
2023-11-30T17:58:18.588Z,-1.30
2023-11-30T18:00:45.539Z,-0.30
2023-11-30T18:03:21.493Z,-1.30
2023-11-30T18:05:49.460Z,-1.80
2023-11-30T18:08:16.293Z,1.10
2023-11-30T18:10:44.676Z,-1.30
2023-11-30T18:13:14.019Z,-1.60
2023-11-30T18:15:41.107Z,-1.80
2023-11-30T18:18:08.134Z,0.40
2023-11-30T18:20:35.145Z,-1.60
2023-11-30T18:23:02.017Z,0.40
2023-11-30T18:25:29.089Z,-1.70
2023-11-30T18:36:56.712Z,-1.60
2023-11-30T18:42:37.446Z,0.60
2023-11-30T18:45:05.026Z,-1.40
2023-11-30T18:47:50.136Z,-1.60
2023-11-30T18:50:52.548Z,0.50
2023-11-30T19:13:16.597Z,-1.70
2023-11-30T19:22:35.239Z,-1.70
2023-11-30T19:29:33.126Z,-1.60
2023-11-30T19:45:22.339Z,-1.60
2023-11-30T19:47:53.586Z,-1.70
2023-11-30T20:03:01.588Z,-1.70
2023-11-30T20:14:06.296Z,-1.50
2023-11-30T20:16:39.877Z,-1.60
2023-11-30T20:19:07.111Z,-1.50
2023-11-30T20:21:34.178Z,0.60
2023-11-30T20:24:01.119Z,-1.90
2023-11-30T20:26:30.862Z,-1.50
2023-11-30T20:28:58.094Z,-1.60
2023-11-30T20:31:42.106Z,-0.20
2023-11-30T20:34:09.316Z,-1.60
2023-11-30T20:36:37.511Z,0.20
2023-11-30T20:49:26.759Z,-1.60
2023-11-30T20:51:54.310Z,1.30
2023-11-30T20:54:29.478Z,0.20
2023-11-30T20:56:56.343Z,-1.60
2023-11-30T21:09:13.867Z,-1.40
2023-11-30T21:11:41.018Z,0.10
2023-11-30T21:14:09.680Z,0.40
2023-11-30T21:16:37.018Z,0.40
2023-11-30T21:19:04.026Z,0.30
2023-11-30T21:21:31.079Z,0.30
2023-11-30T21:23:58.144Z,0.50
2023-11-30T21:26:24.980Z,0.40
2023-11-30T21:28:51.784Z,0.70
2023-11-30T21:31:18.791Z,0.40
2023-11-30T21:33:45.812Z,-0.10
2023-11-30T21:36:16.046Z,-0.90
2023-11-30T21:38:45.304Z,0.20
2023-11-30T21:41:24.721Z,-1.70
2023-11-30T21:43:51.756Z,-1.60
2023-11-30T21:46:19.691Z,0.70
2023-11-30T21:48:46.750Z,0.30
2023-11-30T21:51:15.282Z,0.30
2023-11-30T21:53:43.144Z,0.40
2023-11-30T21:56:13.135Z,0.30
2023-11-30T21:58:39.978Z,0.00
2023-11-30T22:01:08.376Z,0.40
2023-11-30T22:03:49.153Z,-1.80
2023-11-30T22:06:16.116Z,-1.70
2023-11-30T22:08:43.077Z,0.50
2023-11-30T22:11:09.925Z,-0.70
2023-11-30T22:13:37.100Z,-0.70
2023-11-30T22:16:11.750Z,0.60
2023-11-30T22:18:40.041Z,-1.50
2023-11-30T22:21:07.403Z,-0.20
2023-11-30T22:23:34.315Z,-1.50
2023-11-30T22:26:04.338Z,0.40
2023-11-30T22:28:31.700Z,-1.00
2023-11-30T22:30:59.319Z,0.40
2023-11-30T22:33:26.309Z,-0.20
2023-11-30T22:35:53.451Z,0.50
2023-11-30T22:38:20.571Z,0.50
2023-11-30T22:40:47.372Z,0.80
2023-11-30T22:48:44.572Z,0.50
2023-11-30T22:51:11.749Z,-0.10
2023-11-30T22:53:41.879Z,-0.80
2023-11-30T22:56:11.298Z,1.40
2023-11-30T22:58:41.662Z,-1.60
2023-11-30T23:01:08.767Z,0.10
2023-11-30T23:03:36.209Z,-1.30
2023-11-30T23:06:05.046Z,0.60
2023-11-30T23:08:42.919Z,-1.60
2023-11-30T23:11:17.762Z,-1.30
2023-11-30T23:13:46.008Z,-1.60
2023-11-30T23:16:17.359Z,0.40
2023-11-30T23:18:50.259Z,-0.50
2023-11-30T23:21:20.057Z,-1.00
2023-11-30T23:23:48.012Z,-0.40
2023-11-30T23:26:17.998Z,0.50
2023-11-30T23:28:44.956Z,0.70
2023-11-30T23:31:16.202Z,0.30
2023-11-30T23:33:56.276Z,0.50
2023-11-30T23:36:31.637Z,-1.20
2023-11-30T23:39:06.737Z,-0.90
2023-11-30T23:44:31.108Z,-1.50
2023-11-30T23:47:05.273Z,-0.30
2023-11-30T23:49:45.513Z,-0.20
2023-11-30T23:52:18.588Z,-0.80
2023-11-30T23:54:49.754Z,0.20
2023-11-30T23:57:25.146Z,-0.40
2023-11-30T23:59:52.291Z,-1.60
